sensor_id;sensor_type;location;lat;lon;timestamp;pressure;altitude;pressure_sealevel;temperature;humidity
41254;BME280;26987;59.928;30.306;2023-03-04T00:01:12;98938.47;;;-1.63;92.16
41254;BME280;26987;59.928;30.306;2023-03-04T00:03:41;98937.44;;;-1.54;91.15
41254;BME280;26987;59.928;30.306;2023-03-04T00:06:09;98917.56;;;-1.56;90.75
41254;BME280;26987;59.928;30.306;2023-03-04T00:08:36;98891.69;;;-1.68;91.04
41254;BME280;26987;59.928;30.306;2023-03-04T00:11:04;98917.66;;;-1.41;90.57
41254;BME280;26987;59.928;30.306;2023-03-04T00:13:32;98915.69;;;-1.39;89.99
41254;BME280;26987;59.928;30.306;2023-03-04T00:16:00;98895.97;;;-1.43;90.27
41254;BME280;26987;59.928;30.306;2023-03-04T00:18:29;98893.97;;;-1.41;90.28
41254;BME280;26987;59.928;30.306;2023-03-04T00:20:57;98901.16;;;-1.27;90.19
41254;BME280;26987;59.928;30.306;2023-03-04T00:23:25;98890.41;;;-1.25;89.78
41254;BME280;26987;59.928;30.306;2023-03-04T00:25:53;98888.09;;;-1.20;89.90
41254;BME280;26987;59.928;30.306;2023-03-04T00:28:21;98877.22;;;-1.17;89.57
41254;BME280;26987;59.928;30.306;2023-03-04T00:30:48;98762.69;;;-1.90;89.82
41254;BME280;26987;59.928;30.306;2023-03-04T00:33:16;98867.22;;;-1.21;89.99
41254;BME280;26987;59.928;30.306;2023-03-04T00:35:46;98873.66;;;-1.24;89.67
41254;BME280;26987;59.928;30.306;2023-03-04T00:38:14;98879.28;;;-1.27;89.94
41254;BME280;26987;59.928;30.306;2023-03-04T00:40:42;98878.16;;;-1.33;90.11
41254;BME280;26987;59.928;30.306;2023-03-04T00:43:10;98837.91;;;-1.57;90.14
41254;BME280;26987;59.928;30.306;2023-03-04T00:45:37;98861.97;;;-1.45;90.64
41254;BME280;26987;59.928;30.306;2023-03-04T00:48:05;98860.66;;;-1.49;90.50
41254;BME280;26987;59.928;30.306;2023-03-04T00:50:34;98805.88;;;-1.84;91.26
41254;BME280;26987;59.928;30.306;2023-03-04T00:53:04;98828.28;;;-1.73;90.56
41254;BME280;26987;59.928;30.306;2023-03-04T00:55:32;98834.19;;;-1.71;90.87
41254;BME280;26987;59.928;30.306;2023-03-04T00:58:00;98833.25;;;-1.78;91.51
41254;BME280;26987;59.928;30.306;2023-03-04T01:00:28;98832.16;;;-1.84;91.45
41254;BME280;26987;59.928;30.306;2023-03-04T01:02:56;98827.75;;;-1.92;92.30
41254;BME280;26987;59.928;30.306;2023-03-04T01:05:24;98823.47;;;-1.93;92.43
41254;BME280;26987;59.928;30.306;2023-03-04T01:07:53;98819.38;;;-1.95;92.23
41254;BME280;26987;59.928;30.306;2023-03-04T01:10:22;98815.28;;;-1.98;92.30
41254;BME280;26987;59.928;30.306;2023-03-04T01:12:50;98802.84;;;-2.04;93.43
41254;BME280;26987;59.928;30.306;2023-03-04T01:15:18;98806.81;;;-2.08;93.28
41254;BME280;26987;59.928;30.306;2023-03-04T01:17:46;98810.31;;;-1.93;93.08
41254;BME280;26987;59.928;30.306;2023-03-04T01:20:15;98807.34;;;-1.90;92.83
41254;BME280;26987;59.928;30.306;2023-03-04T01:22:44;98788.34;;;-1.92;92.57
41254;BME280;26987;59.928;30.306;2023-03-04T01:25:13;98790.28;;;-1.85;92.97
41254;BME280;26987;59.928;30.306;2023-03-04T01:27:42;98794.19;;;-1.81;92.51
41254;BME280;26987;59.928;30.306;2023-03-04T01:30:11;98791.25;;;-1.86;91.97
41254;BME280;26987;59.928;30.306;2023-03-04T01:32:39;98769.72;;;-2.13;92.23
41254;BME280;26987;59.928;30.306;2023-03-04T01:35:07;98790.66;;;-1.97;92.33
41254;BME280;26987;59.928;30.306;2023-03-04T01:37:36;98755.66;;;-2.21;92.65
41254;BME280;26987;59.928;30.306;2023-03-04T01:40:04;98767.25;;;-2.07;92.87
41254;BME280;26987;59.928;30.306;2023-03-04T01:42:33;98748.59;;;-2.20;93.22
41254;BME280;26987;59.928;30.306;2023-03-04T01:45:05;98767.66;;;-1.95;93.71
41254;BME280;26987;59.928;30.306;2023-03-04T01:47:34;98742.78;;;-2.07;93.18
41254;BME280;26987;59.928;30.306;2023-03-04T01:50:05;98765.44;;;-1.83;92.93
41254;BME280;26987;59.928;30.306;2023-03-04T01:52:34;98767.56;;;-1.78;92.80
41254;BME280;26987;59.928;30.306;2023-03-04T01:55:05;98745.59;;;-1.85;92.57
41254;BME280;26987;59.928;30.306;2023-03-04T01:57:34;98756.69;;;-1.75;92.38
41254;BME280;26987;59.928;30.306;2023-03-04T02:00:23;98750.53;;;-1.67;92.63
41254;BME280;26987;59.928;30.306;2023-03-04T02:02:54;98738.66;;;-1.78;92.16
41254;BME280;26987;59.928;30.306;2023-03-04T02:05:24;98752.91;;;-1.72;91.80
41254;BME280;26987;59.928;30.306;2023-03-04T02:07:53;98721.66;;;-1.91;92.53
41254;BME280;26987;59.928;30.306;2023-03-04T02:10:22;98714.13;;;-1.94;92.60
41254;BME280;26987;59.928;30.306;2023-03-04T02:12:50;98709.03;;;-1.95;92.62
41254;BME280;26987;59.928;30.306;2023-03-04T02:15:19;98681.94;;;-2.19;93.07
41254;BME280;26987;59.928;30.306;2023-03-04T02:17:49;98728.84;;;-1.84;93.71
41254;BME280;26987;59.928;30.306;2023-03-04T02:20:27;98731.91;;;-1.81;94.27
41254;BME280;26987;59.928;30.306;2023-03-04T02:23:05;98725.56;;;-1.86;95.10
41254;BME280;26987;59.928;30.306;2023-03-04T02:25:40;98717.03;;;-1.88;94.74
41254;BME280;26987;59.928;30.306;2023-03-04T02:28:10;98726.97;;;-1.75;94.05
41254;BME280;26987;59.928;30.306;2023-03-04T02:30:38;98719.72;;;-1.97;94.83
41254;BME280;26987;59.928;30.306;2023-03-04T02:33:12;98724.34;;;-1.99;96.20
41254;BME280;26987;59.928;30.306;2023-03-04T02:35:41;98688.19;;;-2.20;96.86
41254;BME280;26987;59.928;30.306;2023-03-04T02:38:09;98718.44;;;-2.01;97.86
41254;BME280;26987;59.928;30.306;2023-03-04T02:40:39;98713.34;;;-2.03;98.44
41254;BME280;26987;59.928;30.306;2023-03-04T02:43:11;98687.03;;;-2.18;98.51
41254;BME280;26987;59.928;30.306;2023-03-04T02:45:41;98710.22;;;-1.98;99.08
41254;BME280;26987;59.928;30.306;2023-03-04T02:48:11;98663.38;;;-2.18;98.98
41254;BME280;26987;59.928;30.306;2023-03-04T02:50:41;98707.50;;;-1.90;99.42
41254;BME280;26987;59.928;30.306;2023-03-04T02:53:10;98688.50;;;-1.92;99.04
41254;BME280;26987;59.928;30.306;2023-03-04T02:55:38;98702.78;;;-1.94;99.54
41254;BME280;26987;59.928;30.306;2023-03-04T02:58:08;98613.34;;;-2.39;100.00
41254;BME280;26987;59.928;30.306;2023-03-04T03:00:38;98662.09;;;-1.98;100.00
41254;BME280;26987;59.928;30.306;2023-03-04T03:03:07;98676.16;;;-1.91;100.00
41254;BME280;26987;59.928;30.306;2023-03-04T03:05:36;98658.03;;;-2.01;100.00
41254;BME280;26987;59.928;30.306;2023-03-04T03:08:04;98664.09;;;-2.00;100.00
41254;BME280;26987;59.928;30.306;2023-03-04T03:10:32;98673.53;;;-1.91;100.00
41254;BME280;26987;59.928;30.306;2023-03-04T03:13:01;98675.72;;;-1.95;100.00
41254;BME280;26987;59.928;30.306;2023-03-04T03:15:30;98639.22;;;-2.13;100.00
41254;BME280;26987;59.928;30.306;2023-03-04T03:17:59;98631.75;;;-2.24;100.00
41254;BME280;26987;59.928;30.306;2023-03-04T03:20:27;98649.25;;;-2.17;100.00
41254;BME280;26987;59.928;30.306;2023-03-04T03:22:55;98665.59;;;-2.06;100.00
41254;BME280;26987;59.928;30.306;2023-03-04T03:25:23;98658.88;;;-2.09;100.00
41254;BME280;26987;59.928;30.306;2023-03-04T03:27:53;98627.56;;;-2.34;100.00
41254;BME280;26987;59.928;30.306;2023-03-04T03:30:21;98656.34;;;-2.17;100.00
41254;BME280;26987;59.928;30.306;2023-03-04T03:32:49;98642.00;;;-2.38;100.00
41254;BME280;26987;59.928;30.306;2023-03-04T03:35:19;98648.56;;;-2.34;100.00
41254;BME280;26987;59.928;30.306;2023-03-04T03:37:47;98620.34;;;-2.63;100.00
41254;BME280;26987;59.928;30.306;2023-03-04T03:40:15;98642.25;;;-2.48;100.00
41254;BME280;26987;59.928;30.306;2023-03-04T03:42:43;98600.25;;;-2.71;100.00
41254;BME280;26987;59.928;30.306;2023-03-04T03:45:11;98607.44;;;-2.73;100.00
41254;BME280;26987;59.928;30.306;2023-03-04T03:47:39;98638.09;;;-2.42;100.00
41254;BME280;26987;59.928;30.306;2023-03-04T03:50:08;98611.50;;;-2.62;100.00
41254;BME280;26987;59.928;30.306;2023-03-04T03:52:37;98605.38;;;-2.55;100.00
41254;BME280;26987;59.928;30.306;2023-03-04T03:55:06;98624.56;;;-2.54;100.00
41254;BME280;26987;59.928;30.306;2023-03-04T03:57:34;98625.06;;;-2.59;100.00
41254;BME280;26987;59.928;30.306;2023-03-04T04:00:03;98601.69;;;-2.69;100.00
41254;BME280;26987;59.928;30.306;2023-03-04T04:02:38;98610.66;;;-2.63;100.00
41254;BME280;26987;59.928;30.306;2023-03-04T04:05:08;98624.88;;;-2.49;100.00
41254;BME280;26987;59.928;30.306;2023-03-04T04:07:37;98609.16;;;-2.57;100.00
41254;BME280;26987;59.928;30.306;2023-03-04T04:10:07;98553.72;;;-2.86;100.00
41254;BME280;26987;59.928;30.306;2023-03-04T04:12:37;98599.31;;;-2.55;100.00
41254;BME280;26987;59.928;30.306;2023-03-04T04:15:06;98599.50;;;-2.57;100.00
41254;BME280;26987;59.928;30.306;2023-03-04T04:17:34;98617.97;;;-2.50;100.00
41254;BME280;26987;59.928;30.306;2023-03-04T04:20:02;98590.38;;;-2.69;100.00
41254;BME280;26987;59.928;30.306;2023-03-04T04:22:30;98571.88;;;-2.76;100.00
41254;BME280;26987;59.928;30.306;2023-03-04T04:25:00;98600.59;;;-2.51;100.00
41254;BME280;26987;59.928;30.306;2023-03-04T04:27:28;98573.28;;;-2.65;100.00
41254;BME280;26987;59.928;30.306;2023-03-04T04:29:56;98605.16;;;-2.45;100.00
41254;BME280;26987;59.928;30.306;2023-03-04T04:32:24;98512.84;;;-3.04;100.00
41254;BME280;26987;59.928;30.306;2023-03-04T04:34:52;98594.00;;;-2.47;100.00
41254;BME280;26987;59.928;30.306;2023-03-04T04:37:20;98577.91;;;-2.67;100.00
41254;BME280;26987;59.928;30.306;2023-03-04T04:39:48;98593.59;;;-2.59;100.00
41254;BME280;26987;59.928;30.306;2023-03-04T04:42:18;98609.28;;;-2.50;100.00
41254;BME280;26987;59.928;30.306;2023-03-04T04:44:46;98602.28;;;-2.58;100.00
41254;BME280;26987;59.928;30.306;2023-03-04T04:47:14;98598.38;;;-2.62;100.00
41254;BME280;26987;59.928;30.306;2023-03-04T04:49:42;98559.50;;;-2.91;100.00
41254;BME280;26987;59.928;30.306;2023-03-04T04:52:10;98603.47;;;-2.69;100.00
41254;BME280;26987;59.928;30.306;2023-03-04T04:54:38;98600.25;;;-2.71;100.00
41254;BME280;26987;59.928;30.306;2023-03-04T04:57:06;98582.56;;;-2.77;100.00
41254;BME280;26987;59.928;30.306;2023-03-04T04:59:35;98592.38;;;-2.71;100.00
41254;BME280;26987;59.928;30.306;2023-03-04T05:02:03;98570.47;;;-2.87;100.00
41254;BME280;26987;59.928;30.306;2023-03-04T05:04:31;98584.69;;;-2.81;100.00
41254;BME280;26987;59.928;30.306;2023-03-04T05:06:59;98582.72;;;-2.79;100.00
41254;BME280;26987;59.928;30.306;2023-03-04T05:09:27;98574.72;;;-2.86;100.00
41254;BME280;26987;59.928;30.306;2023-03-04T05:11:55;98573.91;;;-2.86;100.00
41254;BME280;26987;59.928;30.306;2023-03-04T05:14:23;98600.06;;;-2.70;100.00
41254;BME280;26987;59.928;30.306;2023-03-04T05:16:52;98606.06;;;-2.61;100.00
41254;BME280;26987;59.928;30.306;2023-03-04T05:19:20;98602.63;;;-2.61;100.00
41254;BME280;26987;59.928;30.306;2023-03-04T05:21:48;98602.63;;;-2.61;100.00
41254;BME280;26987;59.928;30.306;2023-03-04T05:24:16;98561.75;;;-2.79;100.00
41254;BME280;26987;59.928;30.306;2023-03-04T05:26:44;98600.94;;;-2.54;100.00
41254;BME280;26987;59.928;30.306;2023-03-04T05:29:12;98587.72;;;-2.61;100.00
41254;BME280;26987;59.928;30.306;2023-03-04T05:31:40;98598.44;;;-2.47;100.00
41254;BME280;26987;59.928;30.306;2023-03-04T05:34:10;98601.88;;;-2.47;100.00
41254;BME280;26987;59.928;30.306;2023-03-04T05:36:38;98609.75;;;-2.47;100.00
41254;BME280;26987;59.928;30.306;2023-03-04T05:39:06;98600.41;;;-2.49;100.00
41254;BME280;26987;59.928;30.306;2023-03-04T05:41:33;98579.00;;;-2.61;100.00
41254;BME280;26987;59.928;30.306;2023-03-04T05:44:02;98607.59;;;-2.43;100.00
41254;BME280;26987;59.928;30.306;2023-03-04T05:46:30;98585.19;;;-2.54;100.00
41254;BME280;26987;59.928;30.306;2023-03-04T05:48:58;98602.44;;;-2.36;100.00
41254;BME280;26987;59.928;30.306;2023-03-04T05:51:27;98603.09;;;-2.34;100.00
41254;BME280;26987;59.928;30.306;2023-03-04T05:53:55;98596.75;;;-2.40;100.00
41254;BME280;26987;59.928;30.306;2023-03-04T05:56:23;98609.97;;;-2.33;100.00
41254;BME280;26987;59.928;30.306;2023-03-04T05:58:51;98604.81;;;-2.42;100.00
41254;BME280;26987;59.928;30.306;2023-03-04T06:01:19;98604.47;;;-2.38;100.00
41254;BME280;26987;59.928;30.306;2023-03-04T06:03:47;98592.59;;;-2.34;100.00
41254;BME280;26987;59.928;30.306;2023-03-04T06:06:15;98615.63;;;-2.21;100.00
41254;BME280;26987;59.928;30.306;2023-03-04T06:08:45;98618.63;;;-2.24;100.00
41254;BME280;26987;59.928;30.306;2023-03-04T06:11:13;98616.53;;;-2.29;100.00
41254;BME280;26987;59.928;30.306;2023-03-04T06:13:40;98609.34;;;-2.35;100.00
41254;BME280;26987;59.928;30.306;2023-03-04T06:16:08;98617.06;;;-2.34;100.00
41254;BME280;26987;59.928;30.306;2023-03-04T06:18:37;98609.00;;;-2.32;100.00
41254;BME280;26987;59.928;30.306;2023-03-04T06:21:05;98618.50;;;-2.31;100.00
41254;BME280;26987;59.928;30.306;2023-03-04T06:23:33;98573.06;;;-2.55;100.00
41254;BME280;26987;59.928;30.306;2023-03-04T06:26:03;98619.97;;;-2.29;100.00
41254;BME280;26987;59.928;30.306;2023-03-04T06:28:34;98619.50;;;-2.32;100.00
41254;BME280;26987;59.928;30.306;2023-03-04T06:31:02;98620.78;;;-2.28;100.00
41254;BME280;26987;59.928;30.306;2023-03-04T06:33:30;98616.41;;;-2.36;100.00
41254;BME280;26987;59.928;30.306;2023-03-04T06:35:58;98607.44;;;-2.42;100.00
41254;BME280;26987;59.928;30.306;2023-03-04T06:38:26;98600.72;;;-2.44;100.00
41254;BME280;26987;59.928;30.306;2023-03-04T06:40:54;98628.00;;;-2.30;100.00
41254;BME280;26987;59.928;30.306;2023-03-04T06:43:24;98614.66;;;-2.20;100.00
41254;BME280;26987;59.928;30.306;2023-03-04T06:45:51;98625.00;;;-2.19;100.00
41254;BME280;26987;59.928;30.306;2023-03-04T06:48:19;98578.91;;;-2.45;100.00
41254;BME280;26987;59.928;30.306;2023-03-04T06:50:47;98612.03;;;-2.20;100.00
41254;BME280;26987;59.928;30.306;2023-03-04T06:53:15;98618.66;;;-2.09;100.00
41254;BME280;26987;59.928;30.306;2023-03-04T06:55:43;98611.16;;;-2.12;100.00
41254;BME280;26987;59.928;30.306;2023-03-04T06:58:11;98629.78;;;-1.99;100.00
41254;BME280;26987;59.928;30.306;2023-03-04T07:00:40;98619.66;;;-1.87;100.00
41254;BME280;26987;59.928;30.306;2023-03-04T07:03:10;98631.00;;;-1.71;100.00
41254;BME280;26987;59.928;30.306;2023-03-04T07:05:38;98636.25;;;-1.71;100.00
41254;BME280;26987;59.928;30.306;2023-03-04T07:08:06;98630.19;;;-1.72;100.00
41254;BME280;26987;59.928;30.306;2023-03-04T07:10:34;98615.06;;;-1.70;100.00
41254;BME280;26987;59.928;30.306;2023-03-04T07:13:02;98632.84;;;-1.57;100.00
41254;BME280;26987;59.928;30.306;2023-03-04T07:15:30;98633.56;;;-1.63;100.00
41254;BME280;26987;59.928;30.306;2023-03-04T07:18:00;98617.69;;;-1.70;100.00
41254;BME280;26987;59.928;30.306;2023-03-04T07:20:28;98635.94;;;-1.53;100.00
41254;BME280;26987;59.928;30.306;2023-03-04T07:22:56;98637.13;;;-1.41;100.00
41254;BME280;26987;59.928;30.306;2023-03-04T07:25:24;98629.31;;;-1.34;100.00
41254;BME280;26987;59.928;30.306;2023-03-04T07:27:52;98609.28;;;-1.50;98.90
41254;BME280;26987;59.928;30.306;2023-03-04T07:30:20;98648.84;;;-1.28;98.76
41254;BME280;26987;59.928;30.306;2023-03-04T07:32:48;98656.97;;;-1.23;98.00
41254;BME280;26987;59.928;30.306;2023-03-04T07:35:17;98653.63;;;-1.17;98.83
41254;BME280;26987;59.928;30.306;2023-03-04T07:37:45;98663.34;;;-1.02;97.69
41254;BME280;26987;59.928;30.306;2023-03-04T07:40:13;98655.44;;;-1.02;97.34
41254;BME280;26987;59.928;30.306;2023-03-04T07:42:41;98655.00;;;-0.91;97.43
41254;BME280;26987;59.928;30.306;2023-03-04T07:45:14;98624.50;;;-1.00;97.30
41254;BME280;26987;59.928;30.306;2023-03-04T07:47:42;98647.88;;;-0.75;97.34
41254;BME280;26987;59.928;30.306;2023-03-04T07:50:11;98658.56;;;-0.61;96.33
41254;BME280;26987;59.928;30.306;2023-03-04T07:52:42;98660.31;;;-0.69;95.64
41254;BME280;26987;59.928;30.306;2023-03-04T07:55:12;98661.41;;;-0.78;94.90
41254;BME280;26987;59.928;30.306;2023-03-04T07:57:40;98662.53;;;-0.87;95.63
41254;BME280;26987;59.928;30.306;2023-03-04T08:00:10;98618.78;;;-1.19;96.51
41254;BME280;26987;59.928;30.306;2023-03-04T08:02:41;98654.44;;;-0.86;96.70
41254;BME280;26987;59.928;30.306;2023-03-04T08:05:09;98666.78;;;-0.86;96.27
41254;BME280;26987;59.928;30.306;2023-03-04T08:07:37;98662.06;;;-0.91;96.52
41254;BME280;26987;59.928;30.306;2023-03-04T08:10:07;98660.88;;;-0.89;97.27
41254;BME280;26987;59.928;30.306;2023-03-04T08:12:37;98664.22;;;-0.95;96.72
41254;BME280;26987;59.928;30.306;2023-03-04T08:15:06;98654.91;;;-0.97;97.57
41254;BME280;26987;59.928;30.306;2023-03-04T08:17:34;98666.97;;;-0.88;97.49
41254;BME280;26987;59.928;30.306;2023-03-04T08:20:02;98661.88;;;-0.90;96.59
41254;BME280;26987;59.928;30.306;2023-03-04T08:22:30;98665.59;;;-0.84;97.74
41254;BME280;26987;59.928;30.306;2023-03-04T08:24:58;98677.28;;;-0.71;97.77
41254;BME280;26987;59.928;30.306;2023-03-04T08:27:27;98673.81;;;-0.57;96.79
41254;BME280;26987;59.928;30.306;2023-03-04T08:29:55;98680.59;;;-0.47;95.75
41254;BME280;26987;59.928;30.306;2023-03-04T08:32:23;98677.97;;;-0.47;95.82
41254;BME280;26987;59.928;30.306;2023-03-04T08:34:51;98673.34;;;-0.45;95.23
41254;BME280;26987;59.928;30.306;2023-03-04T08:37:21;98676.41;;;-0.42;95.46
41254;BME280;26987;59.928;30.306;2023-03-04T08:39:49;98683.25;;;-0.47;95.07
41254;BME280;26987;59.928;30.306;2023-03-04T08:42:17;98689.56;;;-0.42;95.85
41254;BME280;26987;59.928;30.306;2023-03-04T08:44:46;98676.22;;;-0.40;96.29
41254;BME280;26987;59.928;30.306;2023-03-04T08:47:14;98678.81;;;-0.25;95.81
41254;BME280;26987;59.928;30.306;2023-03-04T08:49:42;98689.25;;;-0.17;95.18
41254;BME280;26987;59.928;30.306;2023-03-04T08:52:10;98681.41;;;-0.10;95.67
41254;BME280;26987;59.928;30.306;2023-03-04T08:54:37;98682.22;;;0.12;96.55
41254;BME280;26987;59.928;30.306;2023-03-04T08:57:05;98687.88;;;0.31;94.32
41254;BME280;26987;59.928;30.306;2023-03-04T08:59:33;98686.09;;;0.39;93.13
41254;BME280;26987;59.928;30.306;2023-03-04T09:02:02;98685.50;;;0.15;92.92
41254;BME280;26987;59.928;30.306;2023-03-04T09:04:30;98673.31;;;-0.08;93.75
41254;BME280;26987;59.928;30.306;2023-03-04T09:06:58;98683.84;;;-0.08;93.67
41254;BME280;26987;59.928;30.306;2023-03-04T09:09:26;98689.13;;;-0.08;93.53
41254;BME280;26987;59.928;30.306;2023-03-04T09:11:54;98692.13;;;-0.11;94.69
41254;BME280;26987;59.928;30.306;2023-03-04T09:14:22;98695.03;;;-0.06;94.09
41254;BME280;26987;59.928;30.306;2023-03-04T09:16:50;98680.06;;;-0.21;93.92
41254;BME280;26987;59.928;30.306;2023-03-04T09:19:19;98692.13;;;-0.11;94.18
41254;BME280;26987;59.928;30.306;2023-03-04T09:21:47;98686.09;;;-0.05;94.42
41254;BME280;26987;59.928;30.306;2023-03-04T09:24:15;98692.22;;;-0.05;95.54
41254;BME280;26987;59.928;30.306;2023-03-04T09:26:43;98690.19;;;-0.03;94.93
41254;BME280;26987;59.928;30.306;2023-03-04T09:29:11;98679.59;;;-0.09;94.69
41254;BME280;26987;59.928;30.306;2023-03-04T09:31:39;98678.84;;;-0.03;94.63
41254;BME280;26987;59.928;30.306;2023-03-04T09:34:07;98688.94;;;-0.07;93.76
41254;BME280;26987;59.928;30.306;2023-03-04T09:36:36;98674.00;;;-0.21;93.90
41254;BME280;26987;59.928;30.306;2023-03-04T09:39:05;98654.69;;;-0.29;94.24
41254;BME280;26987;59.928;30.306;2023-03-04T09:41:36;98687.03;;;-0.13;93.18
41254;BME280;26987;59.928;30.306;2023-03-04T09:44:13;98654.03;;;-0.31;93.89
41254;BME280;26987;59.928;30.306;2023-03-04T09:46:43;98695.63;;;-0.04;93.76
41254;BME280;26987;59.928;30.306;2023-03-04T09:49:12;98693.38;;;-0.07;93.35
41254;BME280;26987;59.928;30.306;2023-03-04T09:51:47;98694.66;;;-0.03;93.25
41254;BME280;26987;59.928;30.306;2023-03-04T09:54:24;98688.59;;;0.03;92.69
41254;BME280;26987;59.928;30.306;2023-03-04T09:56:59;98687.34;;;-0.01;92.82
41254;BME280;26987;59.928;30.306;2023-03-04T09:59:32;98700.81;;;0.04;92.23
41254;BME280;26987;59.928;30.306;2023-03-04T10:02:15;98700.94;;;0.18;91.65
41254;BME280;26987;59.928;30.306;2023-03-04T10:04:48;98695.94;;;0.08;91.01
41254;BME280;26987;59.928;30.306;2023-03-04T10:07:21;98681.72;;;0.02;90.41
41254;BME280;26987;59.928;30.306;2023-03-04T10:09:54;98697.72;;;0.22;89.73
41254;BME280;26987;59.928;30.306;2023-03-04T10:12:24;98703.88;;;0.30;88.90
41254;BME280;26987;59.928;30.306;2023-03-04T10:14:59;98711.72;;;0.45;88.65
41254;BME280;26987;59.928;30.306;2023-03-04T10:17:34;98708.13;;;0.53;87.84
41254;BME280;26987;59.928;30.306;2023-03-04T10:20:05;98689.69;;;0.59;87.21
41254;BME280;26987;59.928;30.306;2023-03-04T10:22:40;98713.53;;;0.73;86.07
41254;BME280;26987;59.928;30.306;2023-03-04T10:25:16;98708.44;;;0.71;86.63
41254;BME280;26987;59.928;30.306;2023-03-04T10:27:49;98718.63;;;0.74;85.56
41254;BME280;26987;59.928;30.306;2023-03-04T10:30:25;98714.84;;;0.84;85.70
41254;BME280;26987;59.928;30.306;2023-03-04T10:32:57;98720.19;;;0.97;84.53
41254;BME280;26987;59.928;30.306;2023-03-04T10:35:27;98703.97;;;1.00;84.08
41254;BME280;26987;59.928;30.306;2023-03-04T10:38:03;98711.38;;;1.19;82.63
41254;BME280;26987;59.928;30.306;2023-03-04T10:40:37;98717.31;;;1.28;81.54
41254;BME280;26987;59.928;30.306;2023-03-04T10:43:05;98723.94;;;1.10;82.79
41254;BME280;26987;59.928;30.306;2023-03-04T10:45:38;98714.00;;;0.83;83.87
41254;BME280;26987;59.928;30.306;2023-03-04T10:48:19;98698.38;;;0.53;85.36
41254;BME280;26987;59.928;30.306;2023-03-04T10:50:48;98736.03;;;0.47;86.99
41254;BME280;26987;59.928;30.306;2023-03-04T10:53:24;98731.22;;;0.50;87.30
41254;BME280;26987;59.928;30.306;2023-03-04T10:55:55;98737.03;;;0.39;86.29
41254;BME280;26987;59.928;30.306;2023-03-04T10:58:23;98740.81;;;0.36;86.38
41254;BME280;26987;59.928;30.306;2023-03-04T11:01:00;98720.00;;;0.42;87.26
41254;BME280;26987;59.928;30.306;2023-03-04T11:03:31;98734.91;;;0.56;86.78
41254;BME280;26987;59.928;30.306;2023-03-04T11:06:09;98718.31;;;0.62;85.63
41254;BME280;26987;59.928;30.306;2023-03-04T11:08:39;98746.31;;;0.85;84.07
41254;BME280;26987;59.928;30.306;2023-03-04T11:11:22;98729.22;;;0.81;84.38
41254;BME280;26987;59.928;30.306;2023-03-04T11:13:51;98739.59;;;0.83;83.57
41254;BME280;26987;59.928;30.306;2023-03-04T11:16:25;98744.66;;;0.84;83.51
41254;BME280;26987;59.928;30.306;2023-03-04T11:18:54;98751.31;;;0.80;83.21
41254;BME280;26987;59.928;30.306;2023-03-04T11:21:28;98735.47;;;0.73;83.04
41254;BME280;26987;59.928;30.306;2023-03-04T11:24:00;98744.44;;;0.79;83.25
41254;BME280;26987;59.928;30.306;2023-03-04T11:26:31;98747.63;;;0.74;83.06
41254;BME280;26987;59.928;30.306;2023-03-04T11:29:06;98753.00;;;0.88;82.85
41254;BME280;26987;59.928;30.306;2023-03-04T11:31:41;98710.50;;;0.47;82.00
41254;BME280;26987;59.928;30.306;2023-03-04T11:34:17;98743.78;;;0.77;82.38
41254;BME280;26987;59.928;30.306;2023-03-04T11:36:53;98756.59;;;0.80;82.59
41254;BME280;26987;59.928;30.306;2023-03-04T11:39:30;98742.44;;;0.81;82.65
41254;BME280;26987;59.928;30.306;2023-03-04T11:42:04;98752.97;;;0.81;82.82
41254;BME280;26987;59.928;30.306;2023-03-04T11:44:33;98767.78;;;0.82;81.72
41254;BME280;26987;59.928;30.306;2023-03-04T11:47:26;98758.88;;;0.83;82.43
41254;BME280;26987;59.928;30.306;2023-03-04T11:50:09;98762.22;;;0.70;82.70
41254;BME280;26987;59.928;30.306;2023-03-04T11:52:53;98762.84;;;0.72;83.34
41254;BME280;26987;59.928;30.306;2023-03-04T11:55:37;98771.84;;;0.78;83.11
41254;BME280;26987;59.928;30.306;2023-03-04T11:58:23;98762.59;;;0.67;83.06
41254;BME280;26987;59.928;30.306;2023-03-04T12:01:03;98772.22;;;0.53;82.87
41254;BME280;26987;59.928;30.306;2023-03-04T12:03:56;98772.09;;;0.61;83.66
41254;BME280;26987;59.928;30.306;2023-03-04T12:06:37;98774.84;;;0.53;83.75
41254;BME280;26987;59.928;30.306;2023-03-04T12:09:28;98777.38;;;0.61;83.88
41254;BME280;26987;59.928;30.306;2023-03-04T12:12:13;98764.56;;;0.58;82.98
41254;BME280;26987;59.928;30.306;2023-03-04T12:14:50;98772.09;;;0.61;82.97
41254;BME280;26987;59.928;30.306;2023-03-04T12:20:39;98778.06;;;0.48;83.27
41254;BME280;26987;59.928;30.306;2023-03-04T12:23:18;98763.31;;;0.32;83.23
41254;BME280;26987;59.928;30.306;2023-03-04T12:25:55;98782.03;;;0.37;83.91
41254;BME280;26987;59.928;30.306;2023-03-04T12:28:41;98776.75;;;0.37;83.75
41254;BME280;26987;59.928;30.306;2023-03-04T12:31:32;98755.13;;;0.05;83.97
41254;BME280;26987;59.928;30.306;2023-03-04T12:34:26;98759.28;;;0.15;84.15
41254;BME280;26987;59.928;30.306;2023-03-04T12:37:07;98789.44;;;0.27;83.80
41254;BME280;26987;59.928;30.306;2023-03-04T12:39:44;98782.94;;;0.08;84.84
41254;BME280;26987;59.928;30.306;2023-03-04T12:42:21;98768.13;;;0.07;85.28
41254;BME280;26987;59.928;30.306;2023-03-04T12:45:01;98773.22;;;0.08;83.87
41254;BME280;26987;59.928;30.306;2023-03-04T12:47:45;98798.19;;;0.12;84.40
41254;BME280;26987;59.928;30.306;2023-03-04T12:50:27;98796.09;;;0.08;84.60
41254;BME280;26987;59.928;30.306;2023-03-04T12:53:07;98796.09;;;0.08;85.07
41254;BME280;26987;59.928;30.306;2023-03-04T12:55:41;98798.31;;;0.04;84.60
41254;BME280;26987;59.928;30.306;2023-03-04T12:58:14;98787.25;;;-0.06;84.64
41254;BME280;26987;59.928;30.306;2023-03-04T13:00:50;98797.16;;;-0.08;84.91
41254;BME280;26987;59.928;30.306;2023-03-04T13:03:24;98814.88;;;-0.02;84.73
41254;BME280;26987;59.928;30.306;2023-03-04T13:06:14;98800.06;;;-0.03;84.84
41254;BME280;26987;59.928;30.306;2023-03-04T13:08:52;98799.16;;;-0.10;84.82